createdAt,value
2023-04-15T00:00:22.154Z,82.39
2023-04-15T00:01:22.137Z,82.29
2023-04-15T00:02:22.277Z,82.15
2023-04-15T00:03:22.294Z,81.05
2023-04-15T00:04:22.236Z,80.53
2023-04-15T00:05:22.085Z,80.53
2023-04-15T00:06:22.075Z,80.84
2023-04-15T00:07:22.059Z,81.57
2023-04-15T00:08:22.051Z,81.88
2023-04-15T00:09:22.036Z,81.67
2023-04-15T00:10:22.025Z,81.81
2023-04-15T00:11:22.010Z,83.16
2023-04-15T00:12:22.028Z,83.20
2023-04-15T00:13:21.991Z,82.06
2023-04-15T00:14:21.983Z,82.58
2023-04-15T00:15:21.965Z,83.51
2023-04-15T00:16:21.996Z,84.38
2023-04-15T00:17:21.965Z,85.00
2023-04-15T00:18:21.929Z,85.31
2023-04-15T00:19:21.911Z,85.21
2023-04-15T00:20:21.901Z,85.37
2023-04-15T00:21:21.884Z,85.27
2023-04-15T00:22:21.874Z,84.54
2023-04-15T00:23:21.858Z,85.06
2023-04-15T00:24:21.862Z,84.54
2023-04-15T00:25:21.834Z,83.41
2023-04-15T00:26:21.818Z,82.78
2023-04-15T00:27:21.808Z,82.82
2023-04-15T00:28:21.818Z,84.48
2023-04-15T00:29:21.794Z,84.69
2023-04-15T00:30:21.771Z,84.17
2023-04-15T00:31:21.904Z,83.58
2023-04-15T00:33:21.732Z,84.52
2023-04-15T00:34:21.719Z,84.62
2023-04-15T00:35:21.734Z,85.24
2023-04-15T00:36:21.694Z,85.18
2023-04-15T00:37:21.689Z,85.08
2023-04-15T00:38:21.668Z,85.39
2023-04-15T00:39:21.651Z,87.36
2023-04-15T00:40:21.659Z,88.09
2023-04-15T00:41:21.629Z,87.63
2023-04-15T00:42:21.618Z,87.21
2023-04-15T00:43:21.606Z,86.90
2023-04-15T00:44:21.627Z,86.59
2023-04-15T00:45:21.581Z,86.49
2023-04-15T00:46:21.750Z,86.14
2023-04-15T00:47:21.559Z,86.04
2023-04-15T00:48:21.548Z,85.62
2023-04-15T00:49:21.528Z,85.00
2023-04-15T00:50:21.516Z,85.31
2023-04-15T00:51:21.518Z,84.89
2023-04-15T00:52:21.489Z,84.31
2023-04-15T00:53:21.476Z,83.89
2023-04-15T00:54:21.473Z,83.89
2023-04-15T00:55:21.452Z,83.89
2023-04-15T00:56:21.440Z,84.21
2023-04-15T00:57:21.427Z,84.52
2023-04-15T00:58:21.417Z,85.35
2023-04-15T00:59:21.415Z,85.66
2023-04-15T01:00:21.425Z,85.45
2023-04-15T01:01:21.386Z,85.45
2023-04-15T01:02:21.458Z,84.83
2023-04-15T01:03:21.545Z,83.73
2023-04-15T01:04:21.410Z,83.83
2023-04-15T01:05:21.348Z,83.83
2023-04-15T01:06:21.312Z,84.25
2023-04-15T01:07:21.297Z,84.80
2023-04-15T01:08:21.296Z,84.87
2023-04-15T01:09:21.273Z,84.87
2023-04-15T01:10:21.266Z,83.97
2023-04-15T01:11:21.246Z,83.66
2023-04-15T01:12:21.244Z,83.35
2023-04-15T01:13:21.220Z,83.04
2023-04-15T01:14:21.209Z,82.76
2023-04-15T01:15:21.197Z,84.18
2023-04-15T01:16:21.239Z,83.91
2023-04-15T01:17:21.209Z,84.63
2023-04-15T01:18:21.158Z,84.53
2023-04-15T01:19:21.149Z,84.22
2023-04-15T01:20:21.147Z,84.94
2023-04-15T01:21:21.120Z,84.94
2023-04-15T01:22:21.135Z,86.61
2023-04-15T01:23:21.096Z,85.88
2023-04-15T01:24:21.083Z,85.67
2023-04-15T01:25:21.074Z,85.15
2023-04-15T01:26:21.066Z,84.94
2023-04-15T01:27:21.044Z,84.01
2023-04-15T01:28:21.032Z,83.59
2023-04-15T01:29:21.016Z,83.39
2023-04-15T01:30:21.009Z,83.91
2023-04-15T01:31:21.066Z,84.22
2023-04-15T01:32:21.040Z,84.84
2023-04-15T01:33:20.968Z,85.84
2023-04-15T01:34:20.994Z,86.19
2023-04-15T01:35:20.955Z,88.69
2023-04-15T01:36:20.931Z,89.00
2023-04-15T01:37:20.920Z,88.48
2023-04-15T01:38:20.908Z,89.20
2023-04-15T01:39:20.894Z,88.06
2023-04-15T01:40:20.882Z,86.92
2023-04-15T01:41:20.870Z,86.23
2023-04-15T01:42:20.859Z,86.34
2023-04-15T01:43:20.845Z,87.06
2023-04-15T01:44:20.832Z,87.79
2023-04-15T01:45:20.821Z,88.20
2023-04-15T01:46:20.833Z,88.37
2023-04-15T01:47:20.848Z,88.27
2023-04-15T01:48:20.808Z,88.48
2023-04-15T01:49:20.770Z,88.48
2023-04-15T01:50:20.763Z,87.96
2023-04-15T01:51:20.745Z,87.75
2023-04-15T01:52:20.750Z,87.96
2023-04-15T01:53:20.743Z,88.06
2023-04-15T01:54:20.710Z,88.27
2023-04-15T01:55:20.695Z,88.48
2023-04-15T01:56:20.683Z,88.58
2023-04-15T01:57:20.676Z,87.96
2023-04-15T01:58:20.657Z,87.23
2023-04-15T01:59:20.643Z,86.65
2023-04-15T02:00:20.634Z,86.96
2023-04-15T02:01:20.757Z,86.85
2023-04-15T02:02:20.680Z,86.13
2023-04-15T02:03:20.734Z,86.02
2023-04-15T02:04:20.609Z,85.82
2023-04-15T02:05:20.577Z,85.98
2023-04-15T02:06:20.561Z,85.88
2023-04-15T02:07:20.546Z,85.05
2023-04-15T02:08:20.535Z,84.78
2023-04-15T02:09:20.525Z,87.68
2023-04-15T02:10:20.508Z,89.66
2023-04-15T02:11:20.493Z,90.28
2023-04-15T02:12:20.484Z,89.87
2023-04-15T02:13:20.472Z,89.66
2023-04-15T02:14:20.460Z,88.73
2023-04-15T02:15:20.443Z,88.41
2023-04-15T02:16:20.471Z,88.00
2023-04-15T02:17:20.436Z,87.62
2023-04-15T02:18:20.411Z,88.76
2023-04-15T02:19:20.395Z,89.81
2023-04-15T02:20:20.413Z,89.59
2023-04-15T02:21:20.380Z,90.02
2023-04-15T02:22:20.359Z,90.64
2023-04-15T02:23:20.349Z,90.53
2023-04-15T02:24:20.334Z,89.97
2023-04-15T02:25:20.321Z,89.35
2023-04-15T02:26:20.309Z,88.51
2023-04-15T02:27:20.295Z,87.58
2023-04-15T02:28:20.285Z,87.17
2023-04-15T02:29:20.269Z,87.68
2023-04-15T02:30:20.256Z,87.48
2023-04-15T02:31:20.270Z,86.85
2023-04-15T02:32:20.264Z,86.37
2023-04-15T02:33:20.228Z,85.85
2023-04-15T02:34:20.210Z,86.06
2023-04-15T02:35:20.208Z,85.69
2023-04-15T02:36:20.207Z,85.16
2023-04-15T02:37:20.170Z,85.06
2023-04-15T02:38:20.157Z,85.62
2023-04-15T02:39:20.148Z,86.62
2023-04-15T02:40:20.133Z,86.77
2023-04-15T02:41:20.118Z,88.53
2023-04-15T02:42:20.107Z,90.41
2023-04-15T02:43:20.096Z,91.61
2023-04-15T02:44:20.082Z,91.20
2023-04-15T02:45:20.075Z,90.78
2023-04-15T02:46:20.111Z,89.84
2023-04-15T02:47:20.077Z,89.01
2023-04-15T02:48:20.050Z,88.29
2023-04-15T02:49:20.018Z,89.64
2023-04-15T02:50:20.008Z,89.84
2023-04-15T02:51:20.069Z,89.22
2023-04-15T02:52:20.004Z,88.70
2023-04-15T02:53:20.060Z,88.29
2023-04-15T02:54:19.952Z,87.24
2023-04-15T02:55:19.944Z,85.79
2023-04-15T02:56:20.034Z,84.85
2023-04-15T02:57:19.922Z,84.16
2023-04-15T02:58:19.900Z,84.48
2023-04-15T02:59:19.885Z,84.48
2023-04-15T03:00:19.878Z,85.35
2023-04-15T03:01:19.890Z,86.60
2023-04-15T03:02:19.921Z,87.01
2023-04-15T03:03:19.955Z,88.68
2023-04-15T03:04:20.005Z,89.72
2023-04-15T03:05:19.812Z,90.14
2023-04-15T03:06:19.801Z,89.89
2023-04-15T03:07:19.788Z,89.27
2023-04-15T03:08:19.800Z,88.95
2023-04-15T03:09:19.764Z,88.64
2023-04-15T03:10:19.753Z,88.33
2023-04-15T03:11:19.736Z,87.91
2023-04-15T03:12:19.726Z,87.60
2023-04-15T03:13:19.711Z,87.39
2023-04-15T03:14:19.696Z,88.01
2023-04-15T03:15:19.688Z,88.74
2023-04-15T03:16:19.714Z,89.16
2023-04-15T03:17:19.679Z,89.68
2023-04-15T03:18:19.648Z,89.89
2023-04-15T03:19:19.637Z,89.58
2023-04-15T03:20:19.734Z,89.37
2023-04-15T03:21:19.647Z,88.95
2023-04-15T03:22:19.644Z,89.58
2023-04-15T03:23:19.584Z,90.14
2023-04-15T03:24:19.598Z,91.07
2023-04-15T03:25:19.560Z,91.60
2023-04-15T03:26:19.550Z,91.55
2023-04-15T03:27:19.536Z,91.35
2023-04-15T03:28:19.524Z,91.14
2023-04-15T03:29:19.508Z,90.82
2023-04-15T03:30:19.499Z,90.82
2023-04-15T03:31:19.515Z,90.61
2023-04-15T03:32:19.511Z,90.51
2023-04-15T03:33:19.466Z,90.61
2023-04-15T03:34:19.454Z,90.72
2023-04-15T03:35:19.433Z,90.72
2023-04-15T03:36:19.424Z,90.93
2023-04-15T03:37:19.426Z,90.10
2023-04-15T03:38:19.399Z,89.68
2023-04-15T03:39:19.409Z,88.95
2023-04-15T03:40:19.408Z,88.43
2023-04-15T03:41:19.377Z,88.01
2023-04-15T03:42:19.350Z,87.60
2023-04-15T03:43:19.338Z,87.70
2023-04-15T03:44:19.326Z,88.33
2023-04-15T03:45:19.312Z,87.81
2023-04-15T03:46:19.341Z,87.64
2023-04-15T03:47:19.284Z,87.53
2023-04-15T03:48:19.318Z,88.22
2023-04-15T03:49:19.280Z,88.43
2023-04-15T03:50:19.247Z,88.33
2023-04-15T03:51:19.235Z,88.64
2023-04-15T03:52:19.224Z,87.70
2023-04-15T03:53:19.210Z,86.14
2023-04-15T03:54:19.198Z,85.00
2023-04-15T03:55:19.193Z,86.81
2023-04-15T03:56:19.199Z,88.12
2023-04-15T03:57:19.159Z,88.68
2023-04-15T03:58:19.149Z,89.41
2023-04-15T03:59:19.134Z,89.52
2023-04-15T04:00:19.132Z,89.37
2023-04-15T04:01:19.115Z,88.95
2023-04-15T04:02:19.274Z,88.95
2023-04-15T04:03:19.371Z,89.27
2023-04-15T04:04:19.214Z,89.37
2023-04-15T04:05:19.065Z,89.37
2023-04-15T04:06:19.045Z,88.74
2023-04-15T04:07:19.032Z,87.98
2023-04-15T04:08:19.019Z,88.08
2023-04-15T04:09:19.011Z,87.24
2023-04-15T04:10:18.998Z,86.21
2023-04-15T04:11:18.983Z,85.65
2023-04-15T04:12:18.987Z,85.96
2023-04-15T04:13:18.957Z,86.06
2023-04-15T04:14:18.944Z,85.44
2023-04-15T04:15:18.934Z,85.13
2023-04-15T04:16:18.971Z,85.16
2023-04-15T04:17:18.945Z,85.48
2023-04-15T04:18:18.893Z,86.31
2023-04-15T04:19:18.882Z,87.50
2023-04-15T04:20:18.868Z,88.12
2023-04-15T04:21:18.882Z,87.60
2023-04-15T04:22:18.849Z,87.08
2023-04-15T04:23:18.831Z,86.98
2023-04-15T04:24:18.817Z,87.14
2023-04-15T04:25:18.805Z,86.93
2023-04-15T04:26:18.792Z,86.73
2023-04-15T04:27:18.777Z,86.66
2023-04-15T04:28:18.790Z,87.60
2023-04-15T04:29:18.755Z,88.33
2023-04-15T04:30:18.748Z,88.64
2023-04-15T04:31:18.730Z,88.33
2023-04-15T04:32:18.719Z,88.64
2023-04-15T04:34:18.692Z,89.27
2023-04-15T04:35:18.682Z,89.27
2023-04-15T04:36:18.671Z,88.99
2023-04-15T04:37:18.655Z,89.47
2023-04-15T04:38:18.640Z,89.27
2023-04-15T04:39:18.629Z,88.95
2023-04-15T04:40:18.620Z,88.43
2023-04-15T04:41:18.606Z,87.98
2023-04-15T04:42:18.592Z,87.66
2023-04-15T04:43:18.581Z,86.62
2023-04-15T04:44:18.585Z,85.79
2023-04-15T04:45:18.551Z,84.75
2023-04-15T04:46:18.597Z,84.85
2023-04-15T04:47:18.524Z,85.06
2023-04-15T04:48:18.511Z,84.96
2023-04-15T04:49:18.506Z,84.85
2023-04-15T04:50:18.497Z,84.85
2023-04-15T04:51:18.474Z,84.64
2023-04-15T04:52:18.464Z,85.13
2023-04-15T04:53:18.454Z,85.33
2023-04-15T04:54:18.442Z,84.40
2023-04-15T04:55:18.420Z,85.09
2023-04-15T04:56:18.415Z,84.68
2023-04-15T04:57:18.399Z,83.91
2023-04-15T04:58:18.385Z,82.76
2023-04-15T04:59:19.421Z,81.83
2023-04-15T05:00:18.381Z,81.42
2023-04-15T05:01:18.389Z,82.04
2023-04-15T05:02:18.413Z,81.62
2023-04-15T05:03:18.384Z,82.66
2023-04-15T05:04:18.382Z,83.18
2023-04-15T05:05:18.308Z,84.05
2023-04-15T05:06:18.283Z,84.88
2023-04-15T05:07:18.273Z,85.44
2023-04-15T05:08:18.274Z,85.96
2023-04-15T05:09:18.247Z,86.59
2023-04-15T05:10:18.337Z,87.10
2023-04-15T05:11:18.226Z,86.65
2023-04-15T05:12:18.219Z,86.02
2023-04-15T05:13:18.199Z,85.61
2023-04-15T05:14:18.225Z,85.71
2023-04-15T05:15:18.185Z,85.51
2023-04-15T05:16:18.212Z,84.88
2023-04-15T05:17:18.148Z,84.26
2023-04-15T05:18:18.139Z,83.84
2023-04-15T05:19:18.124Z,84.15
2023-04-15T05:20:18.112Z,84.15
2023-04-15T05:21:18.098Z,84.78
2023-04-15T05:22:18.086Z,85.30
2023-04-15T05:23:18.073Z,86.48
2023-04-15T05:24:18.060Z,86.90
2023-04-15T05:25:18.066Z,87.17
2023-04-15T05:26:18.038Z,86.59
2023-04-15T05:27:18.027Z,87.42
2023-04-15T05:28:18.013Z,88.35
2023-04-15T05:29:17.998Z,87.73
2023-04-15T05:30:17.985Z,87.21
2023-04-15T05:31:18.005Z,87.83
2023-04-15T05:32:18.039Z,88.14
2023-04-15T05:33:17.946Z,88.56
2023-04-15T05:34:17.938Z,88.35
2023-04-15T05:35:17.924Z,88.66
2023-04-15T05:36:17.908Z,88.04
2023-04-15T05:37:17.897Z,88.31
2023-04-15T05:38:17.885Z,88.31
2023-04-15T05:39:17.882Z,87.34
2023-04-15T05:40:17.862Z,86.46
2023-04-15T05:41:19.890Z,85.94
2023-04-15T05:42:17.900Z,85.08
2023-04-15T05:43:17.818Z,84.25
2023-04-15T05:44:17.813Z,84.00
2023-04-15T05:45:17.794Z,83.69
2023-04-15T05:46:17.987Z,83.34
2023-04-15T05:47:17.833Z,83.09
2023-04-15T05:48:17.782Z,82.37
2023-04-15T05:49:17.742Z,80.81
2023-04-15T05:50:17.767Z,80.71
2023-04-15T05:51:17.720Z,80.78
2023-04-15T05:52:17.715Z,80.88
2023-04-15T05:53:17.694Z,80.53
2023-04-15T05:54:19.333Z,80.32
2023-04-15T05:55:17.679Z,79.56
2023-04-15T05:56:17.653Z,79.26
2023-04-15T05:57:17.644Z,79.15
2023-04-15T05:58:17.634Z,78.98
2023-04-15T05:59:17.619Z,80.40
2023-04-15T06:00:17.610Z,81.61
2023-04-15T06:01:17.595Z,81.40
2023-04-15T06:02:17.729Z,81.40
2023-04-15T06:03:17.662Z,81.50
2023-04-15T06:04:17.681Z,80.74
2023-04-15T06:05:17.545Z,81.22
2023-04-15T06:06:17.535Z,80.35
2023-04-15T06:07:17.520Z,80.11
2023-04-15T06:08:17.503Z,79.87
2023-04-15T06:09:17.494Z,78.86
2023-04-15T06:10:17.479Z,77.42
2023-04-15T06:11:17.470Z,76.73
2023-04-15T06:12:17.454Z,74.94
2023-04-15T06:13:17.441Z,74.70
2023-04-15T06:14:17.436Z,74.53
2023-04-15T06:15:17.418Z,72.71
2023-04-15T06:16:17.435Z,73.53
2023-04-15T06:17:17.386Z,72.91
2023-04-15T06:18:17.376Z,72.02
2023-04-15T06:19:17.375Z,72.91
2023-04-15T06:20:17.384Z,73.60
2023-04-15T06:21:17.344Z,72.02
2023-04-15T06:22:17.336Z,72.54
2023-04-15T06:23:17.313Z,71.09
2023-04-15T06:24:17.308Z,70.45
2023-04-15T06:25:17.286Z,69.62
2023-04-15T06:26:17.276Z,71.54
2023-04-15T06:27:17.261Z,72.67
2023-04-15T06:28:17.267Z,74.91
2023-04-15T06:29:17.236Z,76.22
2023-04-15T06:30:17.224Z,76.90
2023-04-15T06:31:17.261Z,76.70
2023-04-15T06:32:17.193Z,76.77
2023-04-15T06:33:17.187Z,77.17
2023-04-15T06:34:17.175Z,76.62
2023-04-15T06:35:17.159Z,76.08
2023-04-15T06:36:17.170Z,75.42
2023-04-15T06:37:17.137Z,75.01
2023-04-15T06:38:17.117Z,75.59
2023-04-15T06:39:17.105Z,75.11
2023-04-15T06:40:17.091Z,73.53
2023-04-15T06:41:17.078Z,72.57
2023-04-15T06:42:17.080Z,72.10
2023-04-15T06:43:17.052Z,70.79
2023-04-15T06:44:17.039Z,70.31
2023-04-15T06:45:17.022Z,71.85
2023-04-15T06:46:17.049Z,71.65
2023-04-15T06:47:17.021Z,71.24
2023-04-15T06:48:16.983Z,69.70
2023-04-15T06:49:16.976Z,68.95
2023-04-15T06:50:16.957Z,70.42
2023-04-15T06:51:16.946Z,69.78
2023-04-15T06:52:16.951Z,68.62
2023-04-15T06:53:16.920Z,68.14
2023-04-15T06:54:16.910Z,67.98
2023-04-15T06:55:16.906Z,65.39
2023-04-15T06:56:16.882Z,65.67
2023-04-15T06:57:16.869Z,63.01
2023-04-15T06:58:16.855Z,63.22
2023-04-15T06:59:16.844Z,65.33
2023-04-15T07:00:16.825Z,64.48
2023-04-15T07:01:16.875Z,63.77
2023-04-15T07:02:16.892Z,61.67
2023-04-15T07:03:16.828Z,61.92
2023-04-15T07:04:16.795Z,61.05
2023-04-15T07:05:16.770Z,58.38
2023-04-15T07:06:16.749Z,58.04
2023-04-15T07:07:16.735Z,55.48
2023-04-15T07:08:16.755Z,56.29
2023-04-15T07:09:16.711Z,55.96
2023-04-15T07:10:16.709Z,57.51
2023-04-15T07:11:16.685Z,56.62
2023-04-15T07:12:16.674Z,56.23
2023-04-15T07:13:16.659Z,56.61
2023-04-15T07:14:16.657Z,55.40
2023-04-15T07:15:16.634Z,54.48
2023-04-15T07:16:16.676Z,52.99
2023-04-15T07:17:16.636Z,52.89
2023-04-15T07:18:16.639Z,51.85
2023-04-15T07:19:16.590Z,50.93
2023-04-15T07:20:16.572Z,51.57
2023-04-15T07:21:16.569Z,50.94
2023-04-15T07:22:16.542Z,48.16
2023-04-15T07:23:16.547Z,47.64
2023-04-15T07:24:16.542Z,47.49
2023-04-15T07:25:16.515Z,45.33
2023-04-15T07:26:16.497Z,45.45
2023-04-15T07:27:16.477Z,45.68
2023-04-15T07:28:16.468Z,45.98
2023-04-15T07:29:16.472Z,46.04
2023-04-15T07:30:16.447Z,45.56
2023-04-15T07:31:16.486Z,48.44
2023-04-15T07:32:16.418Z,48.33
2023-04-15T07:33:16.408Z,48.54
2023-04-15T07:34:16.387Z,48.33
2023-04-15T07:35:16.375Z,48.24
2023-04-15T07:36:16.362Z,48.74
2023-04-15T07:37:16.350Z,48.11
2023-04-15T07:38:16.337Z,47.91
2023-04-15T07:39:16.327Z,46.73
2023-04-15T07:40:16.366Z,45.60
2023-04-15T07:41:16.312Z,45.90
2023-04-15T07:42:16.294Z,46.45
2023-04-15T07:43:16.280Z,47.28
2023-04-15T07:44:16.262Z,46.67
2023-04-15T07:45:16.250Z,47.58
2023-04-15T07:46:16.308Z,46.85
2023-04-15T07:47:16.239Z,46.65
2023-04-15T07:48:16.210Z,47.18
2023-04-15T07:49:16.200Z,47.71
2023-04-15T07:50:16.186Z,48.21
2023-04-15T07:51:16.174Z,48.41
2023-04-15T07:52:16.158Z,47.81
2023-04-15T07:53:16.147Z,48.07
2023-04-15T07:54:16.139Z,46.88
2023-04-15T07:55:16.124Z,48.31
2023-04-15T07:56:16.133Z,48.59
2023-04-15T07:57:16.097Z,48.01
2023-04-15T07:58:16.083Z,49.39
2023-04-15T07:59:16.079Z,49.04
2023-04-15T08:00:16.059Z,49.64
2023-04-15T08:01:16.058Z,51.74
2023-04-15T08:02:16.201Z,53.24
2023-04-15T08:03:16.165Z,55.65
2023-04-15T08:04:16.122Z,55.96
2023-04-15T08:05:16.056Z,54.87
2023-04-15T08:06:15.982Z,54.15
2023-04-15T08:07:15.968Z,54.18
2023-04-15T08:08:15.958Z,55.81
2023-04-15T08:09:15.955Z,53.36
2023-04-15T08:10:15.939Z,51.87
2023-04-15T08:11:15.920Z,52.43
2023-04-15T08:12:15.946Z,51.14
2023-04-15T08:13:15.893Z,49.75
2023-04-15T08:14:15.882Z,48.72
2023-04-15T08:15:15.874Z,48.07
2023-04-15T08:16:15.876Z,47.11
2023-04-15T08:17:15.862Z,46.28
2023-04-15T08:18:15.827Z,46.06
2023-04-15T08:19:15.818Z,45.73
2023-04-15T08:20:15.803Z,44.48
2023-04-15T08:21:15.786Z,44.42
2023-04-15T08:22:17.909Z,45.21
2023-04-15T08:23:15.764Z,44.85
2023-04-15T08:24:15.748Z,45.66
2023-04-15T08:25:15.738Z,45.44
2023-04-15T08:26:15.735Z,45.41
2023-04-15T08:27:15.719Z,44.08
2023-04-15T08:28:15.724Z,44.76
2023-04-15T08:29:15.685Z,43.62
2023-04-15T08:30:15.673Z,42.67
2023-04-15T08:31:15.675Z,42.51
2023-04-15T08:32:15.650Z,43.34
2023-04-15T08:33:15.638Z,43.23
2023-04-15T08:35:15.603Z,44.93
2023-04-15T08:36:15.597Z,45.44
2023-04-15T08:37:15.586Z,45.33
2023-04-15T08:38:15.567Z,44.91
2023-04-15T08:39:15.564Z,44.68
2023-04-15T08:40:15.551Z,44.42
2023-04-15T08:41:15.529Z,45.86
2023-04-15T08:42:15.536Z,45.53
2023-04-15T08:43:15.502Z,45.21
2023-04-15T08:44:15.524Z,45.23
2023-04-15T08:45:15.490Z,45.76
2023-04-15T08:46:15.498Z,46.36
2023-04-15T08:47:15.451Z,45.41
2023-04-15T08:48:15.463Z,44.47
2023-04-15T08:49:15.432Z,45.05
2023-04-15T08:50:15.413Z,46.26
2023-04-15T08:51:15.398Z,46.93
2023-04-15T08:52:15.387Z,48.72
2023-04-15T08:53:15.383Z,49.83
2023-04-15T08:54:15.361Z,49.00
2023-04-15T08:55:15.355Z,49.67
2023-04-15T08:56:15.425Z,50.18
2023-04-15T08:57:15.324Z,49.18
2023-04-15T08:58:15.311Z,48.16
2023-04-15T08:59:15.302Z,47.46
2023-04-15T09:00:15.316Z,47.74
2023-04-15T09:01:15.343Z,46.49
2023-04-15T09:02:15.308Z,45.84
2023-04-15T09:03:15.329Z,44.97
2023-04-15T09:04:15.281Z,43.49
2023-04-15T09:05:15.221Z,42.25
2023-04-15T09:06:15.216Z,43.01
2023-04-15T09:07:15.194Z,42.59
2023-04-15T09:08:15.220Z,41.97
2023-04-15T09:09:15.185Z,40.99
2023-04-15T09:10:15.163Z,39.95
2023-04-15T09:11:15.189Z,39.01
2023-04-15T09:12:15.142Z,38.05
2023-04-15T09:13:15.126Z,37.32
2023-04-15T09:14:15.106Z,36.80
2023-04-15T09:15:15.104Z,36.01
2023-04-15T09:16:15.145Z,36.20
2023-04-15T09:17:15.069Z,35.42
2023-04-15T09:18:15.057Z,36.46
2023-04-15T09:19:15.041Z,36.57
2023-04-15T09:20:15.044Z,37.51
2023-04-15T09:21:15.024Z,37.49
2023-04-15T09:22:15.013Z,37.60
2023-04-15T09:23:15.003Z,37.79
2023-04-15T09:24:14.982Z,37.49
2023-04-15T09:25:14.966Z,38.03
2023-04-15T09:26:14.965Z,38.68
2023-04-15T09:27:14.942Z,39.12
2023-04-15T09:28:14.933Z,40.40
2023-04-15T09:29:14.919Z,42.55
2023-04-15T09:30:14.908Z,42.55
2023-04-15T09:31:14.962Z,43.15
2023-04-15T09:32:14.907Z,43.15
2023-04-15T09:33:14.867Z,43.66
2023-04-15T09:34:14.855Z,43.06
2023-04-15T09:35:14.842Z,42.25
2023-04-15T09:36:14.830Z,42.47
2023-04-15T09:37:28.566Z,42.87
2023-04-15T09:38:16.812Z,42.90
2023-04-15T09:39:14.798Z,42.87
2023-04-15T09:40:14.782Z,42.91
2023-04-15T09:41:14.764Z,43.62
2023-04-15T09:42:14.755Z,44.14
2023-04-15T09:43:14.741Z,44.37
2023-04-15T09:44:14.727Z,44.57
2023-04-15T09:45:14.712Z,43.58
2023-04-15T09:46:14.734Z,44.39
2023-04-15T09:47:14.690Z,41.08
2023-04-15T09:48:14.698Z,40.49
2023-04-15T09:49:14.720Z,40.89
2023-04-15T09:50:14.656Z,41.10
2023-04-15T09:51:14.640Z,40.79
2023-04-15T09:52:14.622Z,41.40
2023-04-15T09:53:14.609Z,41.30
2023-04-15T09:54:14.599Z,41.38
2023-04-15T09:55:14.585Z,41.10
2023-04-15T09:56:14.572Z,40.69
2023-04-15T09:57:14.558Z,41.13
2023-04-15T09:58:14.546Z,41.94
2023-04-15T09:59:14.543Z,42.35
2023-04-15T10:00:14.523Z,42.55
2023-04-15T10:01:14.545Z,42.84
2023-04-15T10:02:14.579Z,42.43
2023-04-15T10:03:14.573Z,42.02
2023-04-15T10:04:14.602Z,42.02
2023-04-15T10:05:14.451Z,41.52
2023-04-15T10:06:14.443Z,41.32
2023-04-15T10:07:14.429Z,41.40
2023-04-15T10:08:14.416Z,40.82
2023-04-15T10:09:14.416Z,41.02
2023-04-15T10:10:14.400Z,41.16
2023-04-15T10:11:14.385Z,41.76
2023-04-15T10:12:14.372Z,41.76
2023-04-15T10:13:14.355Z,42.07
2023-04-15T10:14:14.345Z,42.57
2023-04-15T10:15:14.331Z,42.59
2023-04-15T10:16:14.420Z,43.20
2023-04-15T10:17:14.302Z,43.50
2023-04-15T10:18:14.293Z,43.93
2023-04-15T10:19:14.280Z,44.13
2023-04-15T10:20:14.367Z,44.73
2023-04-15T10:21:14.257Z,44.84
2023-04-15T10:22:14.243Z,44.61
2023-04-15T10:23:14.230Z,44.41
2023-04-15T10:24:14.223Z,44.01
2023-04-15T10:25:14.204Z,44.39
2023-04-15T10:26:14.196Z,44.49
2023-04-15T10:27:14.173Z,44.49
2023-04-15T10:28:14.161Z,44.59
2023-04-15T10:29:14.147Z,44.53
2023-04-15T10:30:14.212Z,45.77
2023-04-15T10:31:14.156Z,45.97
2023-04-15T10:32:14.105Z,45.97
2023-04-15T10:33:14.107Z,46.45
2023-04-15T10:34:14.090Z,46.36
2023-04-15T10:35:14.070Z,46.24
2023-04-15T10:36:14.080Z,46.03
2023-04-15T10:37:14.044Z,45.91
2023-04-15T10:38:14.044Z,45.81
2023-04-15T10:39:14.016Z,45.61
2023-04-15T10:40:14.054Z,45.38
2023-04-15T10:41:14.008Z,45.42
2023-04-15T10:42:14.017Z,45.85
2023-04-15T10:43:13.971Z,46.08
2023-04-15T10:44:13.968Z,46.88
2023-04-15T10:45:13.993Z,46.99
2023-04-15T10:46:13.947Z,47.41
2023-04-15T10:47:13.913Z,47.69
2023-04-15T10:48:13.945Z,47.09
2023-04-15T10:49:13.886Z,47.29
2023-04-15T10:50:13.909Z,47.47
2023-04-15T10:51:13.860Z,47.37
2023-04-15T10:52:13.871Z,47.07
2023-04-15T10:53:13.837Z,47.27
2023-04-15T10:54:13.826Z,47.49
2023-04-15T10:55:13.814Z,47.57
2023-04-15T10:56:13.796Z,47.39
2023-04-15T10:57:13.782Z,47.27
2023-04-15T10:58:13.770Z,47.49
2023-04-15T10:59:13.761Z,47.57
2023-04-15T11:00:13.911Z,47.35
2023-04-15T11:01:13.732Z,46.84
2023-04-15T11:02:13.906Z,46.92
2023-04-15T11:03:13.846Z,46.69
2023-04-15T11:04:13.787Z,46.17
2023-04-15T11:05:13.679Z,45.77
2023-04-15T11:06:13.665Z,45.84
2023-04-15T11:07:13.650Z,45.40
2023-04-15T11:08:13.716Z,45.15
2023-04-15T11:09:13.626Z,44.45
2023-04-15T11:10:13.617Z,43.94
2023-04-15T11:12:13.593Z,43.94
2023-04-15T11:13:13.575Z,44.04
2023-04-15T11:14:13.566Z,44.25
2023-04-15T11:15:13.550Z,44.04
2023-04-15T11:16:13.581Z,44.04
2023-04-15T11:17:13.518Z,43.70
2023-04-15T11:18:13.507Z,42.95
2023-04-15T11:19:13.493Z,42.77
2023-04-15T11:20:13.482Z,43.20
2023-04-15T11:21:13.472Z,44.14
2023-04-15T11:22:13.461Z,44.34
2023-04-15T11:23:14.992Z,44.25
2023-04-15T11:24:13.460Z,43.82
2023-04-15T11:25:13.419Z,43.06
2023-04-15T11:26:13.403Z,42.41
2023-04-15T11:27:13.387Z,41.69
2023-04-15T11:28:13.400Z,41.79
2023-04-15T11:29:13.366Z,41.69
2023-04-15T11:30:13.351Z,41.79
2023-04-15T11:31:13.348Z,41.97
2023-04-15T11:32:13.380Z,42.05
2023-04-15T11:33:13.316Z,41.75
2023-04-15T11:34:13.304Z,41.75
2023-04-15T11:35:13.288Z,41.25
2023-04-15T11:36:13.279Z,41.75
2023-04-15T11:37:13.264Z,41.85
2023-04-15T11:38:13.251Z,41.99
2023-04-15T11:39:13.241Z,43.01
2023-04-15T11:40:13.256Z,42.93
2023-04-15T11:41:13.215Z,43.88
2023-04-15T11:42:13.200Z,44.75
2023-04-15T11:43:13.190Z,45.80
2023-04-15T11:44:13.177Z,46.83
2023-04-15T11:45:13.162Z,47.03
2023-04-15T11:46:13.202Z,47.01
2023-04-15T11:47:13.137Z,47.19
2023-04-15T11:48:13.132Z,46.49
2023-04-15T11:49:13.110Z,47.21
2023-04-15T11:50:13.102Z,47.41
2023-04-15T11:51:13.093Z,47.19
2023-04-15T11:52:13.078Z,47.07
2023-04-15T11:53:13.061Z,47.29
2023-04-15T11:54:13.049Z,46.97
2023-04-15T11:55:13.034Z,47.29
2023-04-15T11:56:13.047Z,47.72
2023-04-15T11:57:13.008Z,48.55
2023-04-15T11:58:14.419Z,48.44
2023-04-15T11:59:12.982Z,48.95
2023-04-15T12:00:12.969Z,49.07
2023-04-15T12:01:12.959Z,49.07
2023-04-15T12:02:13.042Z,49.68
2023-04-15T12:03:13.231Z,49.07
2023-04-15T12:04:13.135Z,49.68
2023-04-15T12:05:12.946Z,49.70
2023-04-15T12:06:12.905Z,50.21
2023-04-15T12:07:12.877Z,50.51
2023-04-15T12:08:12.863Z,49.98
2023-04-15T12:09:12.848Z,50.09
2023-04-15T12:10:12.846Z,49.89
2023-04-15T12:11:12.841Z,49.76
2023-04-15T12:12:12.859Z,49.66
2023-04-15T12:13:12.850Z,49.35
2023-04-15T12:14:12.856Z,49.46
2023-04-15T12:15:12.775Z,49.78
2023-04-15T12:16:12.827Z,50.18
2023-04-15T12:17:12.754Z,49.70
2023-04-15T12:18:12.773Z,51.14
2023-04-15T12:19:12.722Z,51.04
2023-04-15T12:20:12.732Z,51.25
2023-04-15T12:21:12.702Z,51.04
2023-04-15T12:22:12.687Z,51.25
2023-04-15T12:23:12.676Z,51.45
2023-04-15T12:24:12.660Z,52.36
2023-04-15T12:25:12.657Z,53.90
2023-04-15T12:26:12.644Z,54.88
2023-04-15T12:27:12.661Z,55.21
2023-04-15T12:28:12.636Z,57.54
2023-04-15T12:29:12.607Z,59.01
2023-04-15T12:30:12.589Z,60.35
2023-04-15T12:31:12.585Z,61.60
2023-04-15T12:32:12.563Z,61.50
2023-04-15T12:33:12.553Z,60.92
2023-04-15T12:34:12.539Z,63.28
2023-04-15T12:35:12.542Z,63.48
2023-04-15T12:36:12.511Z,63.72
2023-04-15T12:37:12.501Z,63.51
2023-04-15T12:38:12.490Z,63.64
2023-04-15T12:39:12.474Z,64.15
2023-04-15T12:40:12.520Z,63.85
2023-04-15T12:41:12.452Z,64.86
2023-04-15T12:42:12.454Z,64.59
2023-04-15T12:43:12.420Z,64.31
2023-04-15T12:44:12.428Z,66.45
2023-04-15T12:45:12.393Z,66.76
2023-04-15T12:46:12.400Z,65.57
2023-04-15T12:47:12.387Z,67.19
2023-04-15T12:48:12.357Z,67.43
2023-04-15T12:49:12.342Z,69.05
2023-04-15T12:50:12.354Z,68.95
2023-04-15T12:51:12.325Z,69.26
2023-04-15T12:52:12.305Z,68.44
2023-04-15T12:53:12.294Z,71.19
2023-04-15T12:54:12.278Z,70.00
2023-04-15T12:55:12.274Z,70.10
2023-04-15T12:56:12.252Z,70.71